Accueil
METAR-TAF:

METAR-TAF

Aéroports :

Kanoya, Japon

latitude: 31-22N, longitude: 130-50E, altitude: 65 m

Observation

Le bulletin a été fait il y a 7 heures et 2 minutes, à 01:46 UTC
Vent 13 kt de ouest
Température 28°C
Humidité 70%
Pression 1014 hPa
Visibilité 10 km ou plus
Quelques nuages à une hauteur de 1500 ft
Nuages épars à une hauteur de 15000 ft
Nuages fragmentés à une hauteur de 23000 ft

METAR: RJFY 220146Z 28013KT 9999 FEW015 SCT150 BKN230 28/22 Q1014 RMK 1CU015 3AC150 A2995

Heure: 17:48 (08:48 UTC)


TAF: absent

Observations et prévisions météorologiques de plus de 4000 aéroports (messages METAR et TAF).

Les stations disponibles sont représentées par des disques jaunes et rouges sur la carte.

Passer la souris dessus pour voir le nom de la station.

Cliquer dessus pour voir les observations et prévisions météorologiques.

Pour changer de carte: cliquez sur les boutons verts avec une croix noire pour zoomer, sur le bouton vert avec un tiret pour effectuer un zoom arrière, ou sur les flèches vertes pour les cartes adjacentes.


METAR-TAF: